sensor_id;sensor_type;location;lat;lon;timestamp;temperature;humidity
74364;DHT22;62797;49.740;10.154;2023-02-12T00:02:23;4.30;63.10
74364;DHT22;62797;49.740;10.154;2023-02-12T00:04:48;4.20;63.80
74364;DHT22;62797;49.740;10.154;2023-02-12T00:07:14;4.20;64.10
74364;DHT22;62797;49.740;10.154;2023-02-12T00:09:40;4.20;63.70
74364;DHT22;62797;49.740;10.154;2023-02-12T00:12:05;4.20;63.10
74364;DHT22;62797;49.740;10.154;2023-02-12T00:14:31;4.20;62.90
74364;DHT22;62797;49.740;10.154;2023-02-12T00:16:57;4.10;63.30
74364;DHT22;62797;49.740;10.154;2023-02-12T00:19:22;4.00;63.60
74364;DHT22;62797;49.740;10.154;2023-02-12T00:21:48;4.10;64.00
74364;DHT22;62797;49.740;10.154;2023-02-12T00:24:14;4.00;65.30
74364;DHT22;62797;49.740;10.154;2023-02-12T00:30:01;4.10;64.20
74364;DHT22;62797;49.740;10.154;2023-02-12T00:32:27;4.00;63.90
74364;DHT22;62797;49.740;10.154;2023-02-12T00:34:55;4.10;64.50
74364;DHT22;62797;49.740;10.154;2023-02-12T00:40:43;4.00;63.20
74364;DHT22;62797;49.740;10.154;2023-02-12T00:43:09;4.00;63.80
74364;DHT22;62797;49.740;10.154;2023-02-12T00:45:34;3.90;63.40
74364;DHT22;62797;49.740;10.154;2023-02-12T00:48:02;3.90;63.60
74364;DHT22;62797;49.740;10.154;2023-02-12T00:50:28;3.90;63.60
74364;DHT22;62797;49.740;10.154;2023-02-12T00:52:54;3.80;63.60
74364;DHT22;62797;49.740;10.154;2023-02-12T00:55:20;3.80;63.60
74364;DHT22;62797;49.740;10.154;2023-02-12T00:57:45;3.80;63.60
74364;DHT22;62797;49.740;10.154;2023-02-12T01:00:12;3.70;64.60
74364;DHT22;62797;49.740;10.154;2023-02-12T01:02:37;3.70;63.70
74364;DHT22;62797;49.740;10.154;2023-02-12T01:05:03;3.70;64.20
74364;DHT22;62797;49.740;10.154;2023-02-12T01:07:29;3.70;64.00
74364;DHT22;62797;49.740;10.154;2023-02-12T01:09:54;3.70;64.30
74364;DHT22;62797;49.740;10.154;2023-02-12T01:12:20;3.70;64.50
74364;DHT22;62797;49.740;10.154;2023-02-12T01:14:45;3.60;64.10
74364;DHT22;62797;49.740;10.154;2023-02-12T01:17:11;3.60;64.10
74364;DHT22;62797;49.740;10.154;2023-02-12T01:19:36;3.70;64.40
74364;DHT22;62797;49.740;10.154;2023-02-12T01:22:02;3.60;64.90
74364;DHT22;62797;49.740;10.154;2023-02-12T01:24:27;3.60;64.60
74364;DHT22;62797;49.740;10.154;2023-02-12T01:26:53;3.70;64.60
74364;DHT22;62797;49.740;10.154;2023-02-12T01:29:18;3.60;63.60
74364;DHT22;62797;49.740;10.154;2023-02-12T01:31:44;3.60;63.80
74364;DHT22;62797;49.740;10.154;2023-02-12T01:34:10;3.60;64.80
74364;DHT22;62797;49.740;10.154;2023-02-12T01:36:36;3.60;65.10
74364;DHT22;62797;49.740;10.154;2023-02-12T01:39:02;3.60;64.70
74364;DHT22;62797;49.740;10.154;2023-02-12T01:41:37;3.60;64.60
74364;DHT22;62797;49.740;10.154;2023-02-12T01:46:37;3.70;65.00
74364;DHT22;62797;49.740;10.154;2023-02-12T01:49:05;3.70;64.60
74364;DHT22;62797;49.740;10.154;2023-02-12T01:51:32;3.70;65.20
74364;DHT22;62797;49.740;10.154;2023-02-12T01:54:03;3.70;65.20
74364;DHT22;62797;49.740;10.154;2023-02-12T01:56:30;3.80;64.50
74364;DHT22;62797;49.740;10.154;2023-02-12T01:58:56;3.80;63.80
74364;DHT22;62797;49.740;10.154;2023-02-12T02:01:24;3.80;63.80
74364;DHT22;62797;49.740;10.154;2023-02-12T02:03:54;3.80;64.20
74364;DHT22;62797;49.740;10.154;2023-02-12T02:06:26;3.80;64.70
74364;DHT22;62797;49.740;10.154;2023-02-12T02:08:53;3.80;64.70
74364;DHT22;62797;49.740;10.154;2023-02-12T02:11:19;3.80;64.10
74364;DHT22;62797;49.740;10.154;2023-02-12T02:14:03;3.80;63.90
74364;DHT22;62797;49.740;10.154;2023-02-12T02:17:40;3.80;63.80
74364;DHT22;62797;49.740;10.154;2023-02-12T02:25:14;3.80;63.50
74364;DHT22;62797;49.740;10.154;2023-02-12T02:31:41;3.80;64.10
74364;DHT22;62797;49.740;10.154;2023-02-12T02:36:34;3.60;64.60
74364;DHT22;62797;49.740;10.154;2023-02-12T02:39:28;3.60;64.20
74364;DHT22;62797;49.740;10.154;2023-02-12T02:42:09;3.50;63.70
74364;DHT22;62797;49.740;10.154;2023-02-12T02:47:15;3.30;63.80
74364;DHT22;62797;49.740;10.154;2023-02-12T02:49:46;3.20;64.10
74364;DHT22;62797;49.740;10.154;2023-02-12T02:55:42;3.10;64.20
74364;DHT22;62797;49.740;10.154;2023-02-12T02:58:14;3.00;64.30
74364;DHT22;62797;49.740;10.154;2023-02-12T03:00:44;2.90;64.70
74364;DHT22;62797;49.740;10.154;2023-02-12T03:05:56;2.70;65.70
74364;DHT22;62797;49.740;10.154;2023-02-12T03:08:27;2.70;65.90
74364;DHT22;62797;49.740;10.154;2023-02-12T03:11:28;2.70;66.40
74364;DHT22;62797;49.740;10.154;2023-02-12T03:14:09;2.70;67.30
74364;DHT22;62797;49.740;10.154;2023-02-12T03:19:26;2.70;68.00
74364;DHT22;62797;49.740;10.154;2023-02-12T03:22:00;2.80;68.10
74364;DHT22;62797;49.740;10.154;2023-02-12T03:24:47;2.80;68.30
74364;DHT22;62797;49.740;10.154;2023-02-12T03:27:33;2.80;67.50
74364;DHT22;62797;49.740;10.154;2023-02-12T03:30:02;2.90;67.10
74364;DHT22;62797;49.740;10.154;2023-02-12T03:32:35;2.90;67.30
74364;DHT22;62797;49.740;10.154;2023-02-12T03:35:24;2.90;67.50
74364;DHT22;62797;49.740;10.154;2023-02-12T03:38:05;2.90;66.90
74364;DHT22;62797;49.740;10.154;2023-02-12T03:40:36;2.90;66.80
74364;DHT22;62797;49.740;10.154;2023-02-12T03:45:55;3.00;67.00
74364;DHT22;62797;49.740;10.154;2023-02-12T03:48:37;3.00;67.20
74364;DHT22;62797;49.740;10.154;2023-02-12T03:51:39;3.00;67.20
74364;DHT22;62797;49.740;10.154;2023-02-12T03:54:07;3.00;67.00
74364;DHT22;62797;49.740;10.154;2023-02-12T03:56:43;3.00;68.10
74364;DHT22;62797;49.740;10.154;2023-02-12T03:59:12;3.00;66.60
74364;DHT22;62797;49.740;10.154;2023-02-12T04:01:37;3.00;66.50
74364;DHT22;62797;49.740;10.154;2023-02-12T04:04:05;3.10;66.40
74364;DHT22;62797;49.740;10.154;2023-02-12T04:06:31;3.10;66.20
74364;DHT22;62797;49.740;10.154;2023-02-12T04:09:01;3.10;66.30
74364;DHT22;62797;49.740;10.154;2023-02-12T04:11:56;3.10;66.20
74364;DHT22;62797;49.740;10.154;2023-02-12T04:14:57;3.10;65.80
74364;DHT22;62797;49.740;10.154;2023-02-12T04:20:13;3.10;65.90
74364;DHT22;62797;49.740;10.154;2023-02-12T04:25:52;3.10;65.60
74364;DHT22;62797;49.740;10.154;2023-02-12T04:28:47;3.10;65.80
74364;DHT22;62797;49.740;10.154;2023-02-12T04:31:56;3.10;65.30
74364;DHT22;62797;49.740;10.154;2023-02-12T04:37:14;3.10;65.20
74364;DHT22;62797;49.740;10.154;2023-02-12T04:39:41;3.10;64.90
74364;DHT22;62797;49.740;10.154;2023-02-12T04:42:08;3.00;65.20
74364;DHT22;62797;49.740;10.154;2023-02-12T04:44:38;3.00;65.10
74364;DHT22;62797;49.740;10.154;2023-02-12T04:47:03;3.00;65.40
74364;DHT22;62797;49.740;10.154;2023-02-12T04:49:29;2.90;65.50
74364;DHT22;62797;49.740;10.154;2023-02-12T04:51:55;3.00;65.50
74364;DHT22;62797;49.740;10.154;2023-02-12T04:54:21;2.90;65.30
74364;DHT22;62797;49.740;10.154;2023-02-12T04:56:48;2.90;65.00
74364;DHT22;62797;49.740;10.154;2023-02-12T04:59:14;2.80;64.70
74364;DHT22;62797;49.740;10.154;2023-02-12T05:01:41;2.80;64.90
74364;DHT22;62797;49.740;10.154;2023-02-12T05:04:07;2.70;65.00
74364;DHT22;62797;49.740;10.154;2023-02-12T05:06:35;2.70;65.20
74364;DHT22;62797;49.740;10.154;2023-02-12T05:09:00;2.50;65.50
74364;DHT22;62797;49.740;10.154;2023-02-12T05:11:26;2.40;65.80
74364;DHT22;62797;49.740;10.154;2023-02-12T05:13:52;2.40;66.30
74364;DHT22;62797;49.740;10.154;2023-02-12T05:16:19;2.30;66.70
74364;DHT22;62797;49.740;10.154;2023-02-12T05:18:44;2.20;66.70
74364;DHT22;62797;49.740;10.154;2023-02-12T05:21:10;2.20;66.70
74364;DHT22;62797;49.740;10.154;2023-02-12T05:23:38;2.10;66.70
74364;DHT22;62797;49.740;10.154;2023-02-12T05:26:06;2.00;66.30
74364;DHT22;62797;49.740;10.154;2023-02-12T05:28:32;1.90;67.10
74364;DHT22;62797;49.740;10.154;2023-02-12T05:31:02;1.80;67.10
74364;DHT22;62797;49.740;10.154;2023-02-12T05:33:29;1.80;67.70
74364;DHT22;62797;49.740;10.154;2023-02-12T05:35:54;1.80;67.80
74364;DHT22;62797;49.740;10.154;2023-02-12T05:38:20;1.80;68.50
74364;DHT22;62797;49.740;10.154;2023-02-12T05:40:46;1.90;69.00
74364;DHT22;62797;49.740;10.154;2023-02-12T05:43:12;1.90;69.40
74364;DHT22;62797;49.740;10.154;2023-02-12T05:45:37;2.00;69.00
74364;DHT22;62797;49.740;10.154;2023-02-12T05:48:06;2.10;68.90
74364;DHT22;62797;49.740;10.154;2023-02-12T05:50:32;2.10;68.50
74364;DHT22;62797;49.740;10.154;2023-02-12T05:52:59;2.20;68.00
74364;DHT22;62797;49.740;10.154;2023-02-12T05:55:25;2.30;67.50
74364;DHT22;62797;49.740;10.154;2023-02-12T05:57:50;2.30;67.20
74364;DHT22;62797;49.740;10.154;2023-02-12T06:00:16;2.40;66.80
74364;DHT22;62797;49.740;10.154;2023-02-12T06:02:42;2.40;66.60
74364;DHT22;62797;49.740;10.154;2023-02-12T06:05:07;2.50;66.60
74364;DHT22;62797;49.740;10.154;2023-02-12T06:07:33;2.50;66.40
74364;DHT22;62797;49.740;10.154;2023-02-12T06:09:58;2.50;66.30
74364;DHT22;62797;49.740;10.154;2023-02-12T06:12:24;2.60;66.50
74364;DHT22;62797;49.740;10.154;2023-02-12T06:14:50;2.50;66.30
74364;DHT22;62797;49.740;10.154;2023-02-12T06:17:15;2.60;66.00
74364;DHT22;62797;49.740;10.154;2023-02-12T06:19:41;2.50;66.20
74364;DHT22;62797;49.740;10.154;2023-02-12T06:22:06;2.60;66.20
74364;DHT22;62797;49.740;10.154;2023-02-12T06:24:32;2.60;66.50
74364;DHT22;62797;49.740;10.154;2023-02-12T06:26:57;2.70;66.70
74364;DHT22;62797;49.740;10.154;2023-02-12T06:29:23;2.60;66.00
74364;DHT22;62797;49.740;10.154;2023-02-12T06:31:48;2.70;65.90
74364;DHT22;62797;49.740;10.154;2023-02-12T06:34:14;2.80;65.40
74364;DHT22;62797;49.740;10.154;2023-02-12T06:36:44;2.80;65.40
74364;DHT22;62797;49.740;10.154;2023-02-12T06:39:12;2.80;65.50
74364;DHT22;62797;49.740;10.154;2023-02-12T06:41:37;2.80;65.20
74364;DHT22;62797;49.740;10.154;2023-02-12T06:44:04;2.90;65.50
74364;DHT22;62797;49.740;10.154;2023-02-12T06:46:30;2.90;65.20
74364;DHT22;62797;49.740;10.154;2023-02-12T06:48:57;2.90;65.20
74364;DHT22;62797;49.740;10.154;2023-02-12T06:51:25;3.00;64.90
74364;DHT22;62797;49.740;10.154;2023-02-12T06:53:52;3.00;64.70
74364;DHT22;62797;49.740;10.154;2023-02-12T06:56:20;3.00;64.80
74364;DHT22;62797;49.740;10.154;2023-02-12T06:58:50;3.10;64.90
74364;DHT22;62797;49.740;10.154;2023-02-12T07:01:19;3.10;64.90
74364;DHT22;62797;49.740;10.154;2023-02-12T07:03:54;3.20;64.40
74364;DHT22;62797;49.740;10.154;2023-02-12T07:06:20;3.20;64.10
74364;DHT22;62797;49.740;10.154;2023-02-12T07:08:46;3.20;64.20
74364;DHT22;62797;49.740;10.154;2023-02-12T07:11:12;3.30;64.20
74364;DHT22;62797;49.740;10.154;2023-02-12T07:13:40;3.20;64.20
74364;DHT22;62797;49.740;10.154;2023-02-12T07:16:11;3.30;64.40
74364;DHT22;62797;49.740;10.154;2023-02-12T07:18:38;3.30;64.70
74364;DHT22;62797;49.740;10.154;2023-02-12T07:21:05;3.30;64.70
74364;DHT22;62797;49.740;10.154;2023-02-12T07:23:32;3.40;64.70
74364;DHT22;62797;49.740;10.154;2023-02-12T07:25:58;3.40;64.80
74364;DHT22;62797;49.740;10.154;2023-02-12T07:28:25;3.40;64.50
74364;DHT22;62797;49.740;10.154;2023-02-12T07:30:51;3.50;65.00
74364;DHT22;62797;49.740;10.154;2023-02-12T07:33:18;3.50;65.20
74364;DHT22;62797;49.740;10.154;2023-02-12T07:35:44;3.70;65.10
74364;DHT22;62797;49.740;10.154;2023-02-12T07:38:10;3.80;65.20
74364;DHT22;62797;49.740;10.154;2023-02-12T07:40:36;3.80;64.80
74364;DHT22;62797;49.740;10.154;2023-02-12T07:43:01;3.80;64.60
74364;DHT22;62797;49.740;10.154;2023-02-12T07:45:27;3.90;64.40
74364;DHT22;62797;49.740;10.154;2023-02-12T07:47:52;4.00;64.20
74364;DHT22;62797;49.740;10.154;2023-02-12T07:50:18;4.00;64.30
74364;DHT22;62797;49.740;10.154;2023-02-12T07:52:43;4.10;64.40
74364;DHT22;62797;49.740;10.154;2023-02-12T07:55:09;4.10;64.40
74364;DHT22;62797;49.740;10.154;2023-02-12T07:57:35;4.10;64.40
74364;DHT22;62797;49.740;10.154;2023-02-12T08:00:01;4.20;64.30
74364;DHT22;62797;49.740;10.154;2023-02-12T08:02:26;4.20;64.40
74364;DHT22;62797;49.740;10.154;2023-02-12T08:04:55;4.30;64.50
74364;DHT22;62797;49.740;10.154;2023-02-12T08:07:21;4.40;64.30
74364;DHT22;62797;49.740;10.154;2023-02-12T08:09:47;4.40;64.30
74364;DHT22;62797;49.740;10.154;2023-02-12T08:12:13;4.50;64.30
74364;DHT22;62797;49.740;10.154;2023-02-12T08:14:39;4.60;64.50
74364;DHT22;62797;49.740;10.154;2023-02-12T08:17:05;4.60;64.10
74364;DHT22;62797;49.740;10.154;2023-02-12T08:19:30;4.70;64.00
74364;DHT22;62797;49.740;10.154;2023-02-12T08:21:56;4.80;63.70
74364;DHT22;62797;49.740;10.154;2023-02-12T08:24:22;4.90;63.40
74364;DHT22;62797;49.740;10.154;2023-02-12T08:26:48;5.00;63.20
74364;DHT22;62797;49.740;10.154;2023-02-12T08:29:17;5.00;63.40
74364;DHT22;62797;49.740;10.154;2023-02-12T08:31:45;5.00;63.50
74364;DHT22;62797;49.740;10.154;2023-02-12T08:34:19;5.10;63.50
74364;DHT22;62797;49.740;10.154;2023-02-12T08:36:47;5.20;63.40
74364;DHT22;62797;49.740;10.154;2023-02-12T08:39:15;5.30;63.40
74364;DHT22;62797;49.740;10.154;2023-02-12T08:41:41;5.40;63.10
74364;DHT22;62797;49.740;10.154;2023-02-12T08:44:08;5.40;62.80
74364;DHT22;62797;49.740;10.154;2023-02-12T08:46:36;5.50;62.50
74364;DHT22;62797;49.740;10.154;2023-02-12T08:49:07;5.60;63.10
74364;DHT22;62797;49.740;10.154;2023-02-12T08:51:35;5.60;61.80
74364;DHT22;62797;49.740;10.154;2023-02-12T08:54:04;5.70;61.60
74364;DHT22;62797;49.740;10.154;2023-02-12T08:56:32;5.70;61.60
74364;DHT22;62797;49.740;10.154;2023-02-12T08:58:58;5.70;61.70
74364;DHT22;62797;49.740;10.154;2023-02-12T09:01:26;5.80;59.60
74364;DHT22;62797;49.740;10.154;2023-02-12T09:03:52;5.80;61.00
74364;DHT22;62797;49.740;10.154;2023-02-12T09:06:20;5.90;61.40
74364;DHT22;62797;49.740;10.154;2023-02-12T09:08:47;6.00;61.10
74364;DHT22;62797;49.740;10.154;2023-02-12T09:11:15;6.10;60.90
74364;DHT22;62797;49.740;10.154;2023-02-12T09:13:42;6.10;60.70
74364;DHT22;62797;49.740;10.154;2023-02-12T09:19:40;6.30;58.10
74364;DHT22;62797;49.740;10.154;2023-02-12T09:22:05;6.30;60.70
74364;DHT22;62797;49.740;10.154;2023-02-12T09:24:31;6.40;60.50
74364;DHT22;62797;49.740;10.154;2023-02-12T09:26:57;6.50;60.30
74364;DHT22;62797;49.740;10.154;2023-02-12T09:29:22;6.50;59.50
74364;DHT22;62797;49.740;10.154;2023-02-12T09:31:48;6.60;60.60
74364;DHT22;62797;49.740;10.154;2023-02-12T09:34:13;6.60;60.40
74364;DHT22;62797;49.740;10.154;2023-02-12T09:36:39;6.60;60.00
74364;DHT22;62797;49.740;10.154;2023-02-12T09:39:04;6.60;60.70
74364;DHT22;62797;49.740;10.154;2023-02-12T09:41:56;6.70;61.00
74364;DHT22;62797;49.740;10.154;2023-02-12T09:47:22;6.80;60.80
74364;DHT22;62797;49.740;10.154;2023-02-12T09:52:21;6.90;61.70
74364;DHT22;62797;49.740;10.154;2023-02-12T09:54:48;6.90;62.50
74364;DHT22;62797;49.740;10.154;2023-02-12T09:57:41;7.10;62.60
74364;DHT22;62797;49.740;10.154;2023-02-12T10:00:08;7.30;62.90
74364;DHT22;62797;49.740;10.154;2023-02-12T10:02:36;7.40;62.80
74364;DHT22;62797;49.740;10.154;2023-02-12T10:05:03;7.40;61.50
74364;DHT22;62797;49.740;10.154;2023-02-12T10:07:39;7.30;60.70
74364;DHT22;62797;49.740;10.154;2023-02-12T10:10:28;7.20;61.80
74364;DHT22;62797;49.740;10.154;2023-02-12T10:15:48;7.20;62.20
74364;DHT22;62797;49.740;10.154;2023-02-12T10:19:02;7.40;63.70
74364;DHT22;62797;49.740;10.154;2023-02-12T10:22:05;7.60;60.80
74364;DHT22;62797;49.740;10.154;2023-02-12T10:27:13;7.70;61.80
74364;DHT22;62797;49.740;10.154;2023-02-12T10:29:40;7.90;62.40
74364;DHT22;62797;49.740;10.154;2023-02-12T10:32:20;8.20;60.90
74364;DHT22;62797;49.740;10.154;2023-02-12T10:38:19;8.50;59.90
74364;DHT22;62797;49.740;10.154;2023-02-12T10:40:46;8.60;59.70
74364;DHT22;62797;49.740;10.154;2023-02-12T10:43:12;8.60;58.60
74364;DHT22;62797;49.740;10.154;2023-02-12T10:45:38;8.70;58.30
74364;DHT22;62797;49.740;10.154;2023-02-12T10:48:21;8.70;58.20
74364;DHT22;62797;49.740;10.154;2023-02-12T10:56:19;8.50;57.80
74364;DHT22;62797;49.740;10.154;2023-02-12T11:01:23;8.50;57.40
74364;DHT22;62797;49.740;10.154;2023-02-12T11:03:51;8.70;59.00
74364;DHT22;62797;49.740;10.154;2023-02-12T11:06:24;9.00;56.90
74364;DHT22;62797;49.740;10.154;2023-02-12T11:08:50;9.10;56.50
74364;DHT22;62797;49.740;10.154;2023-02-12T11:11:26;9.30;54.40
74364;DHT22;62797;49.740;10.154;2023-02-12T11:14:17;9.40;54.40
74364;DHT22;62797;49.740;10.154;2023-02-12T11:19:24;9.90;54.40
74364;DHT22;62797;49.740;10.154;2023-02-12T11:21:51;10.00;53.70
74364;DHT22;62797;49.740;10.154;2023-02-12T11:24:31;10.20;53.30
74364;DHT22;62797;49.740;10.154;2023-02-12T11:29:44;10.80;48.70
74364;DHT22;62797;49.740;10.154;2023-02-12T11:32:18;10.70;49.30
74364;DHT22;62797;49.740;10.154;2023-02-12T11:35:24;10.70;48.50
74364;DHT22;62797;49.740;10.154;2023-02-12T11:37:54;10.40;48.80
74364;DHT22;62797;49.740;10.154;2023-02-12T11:40:25;10.40;50.50
74364;DHT22;62797;49.740;10.154;2023-02-12T11:43:02;10.50;49.50
74364;DHT22;62797;49.740;10.154;2023-02-12T11:48:37;10.30;48.60
74364;DHT22;62797;49.740;10.154;2023-02-12T11:51:07;10.10;50.00
74364;DHT22;62797;49.740;10.154;2023-02-12T11:53:42;10.10;50.50
74364;DHT22;62797;49.740;10.154;2023-02-12T11:56:12;10.20;49.70
74364;DHT22;62797;49.740;10.154;2023-02-12T11:58:39;10.20;50.50
74364;DHT22;62797;49.740;10.154;2023-02-12T12:01:17;10.20;48.90
74364;DHT22;62797;49.740;10.154;2023-02-12T12:03:59;10.10;49.60
74364;DHT22;62797;49.740;10.154;2023-02-12T12:09:22;10.10;51.60
74364;DHT22;62797;49.740;10.154;2023-02-12T12:14:35;10.40;50.10
74364;DHT22;62797;49.740;10.154;2023-02-12T12:17:36;10.80;50.10
74364;DHT22;62797;49.740;10.154;2023-02-12T12:20:25;11.10;48.90
74364;DHT22;62797;49.740;10.154;2023-02-12T12:25:46;11.60;44.80
74364;DHT22;62797;49.740;10.154;2023-02-12T12:33:51;11.50;45.50
74364;DHT22;62797;49.740;10.154;2023-02-12T12:36:45;11.70;45.60
74364;DHT22;62797;49.740;10.154;2023-02-12T12:39:43;12.00;43.30
74364;DHT22;62797;49.740;10.154;2023-02-12T12:56:18;12.90;42.10
74364;DHT22;62797;49.740;10.154;2023-02-12T13:04:27;13.50;38.00
74364;DHT22;62797;49.740;10.154;2023-02-12T13:07:12;13.20;37.30
74364;DHT22;62797;49.740;10.154;2023-02-12T13:10:02;12.90;37.60
74364;DHT22;62797;49.740;10.154;2023-02-12T13:12:48;12.80;39.00
74364;DHT22;62797;49.740;10.154;2023-02-12T13:18:03;12.50;39.80
74364;DHT22;62797;49.740;10.154;2023-02-12T13:20:44;12.50;38.30
74364;DHT22;62797;49.740;10.154;2023-02-12T13:23:44;12.30;38.70
74364;DHT22;62797;49.740;10.154;2023-02-12T13:26:27;12.20;39.10
74364;DHT22;62797;49.740;10.154;2023-02-12T13:29:01;12.10;40.40
74364;DHT22;62797;49.740;10.154;2023-02-12T13:31:29;12.10;41.00
74364;DHT22;62797;49.740;10.154;2023-02-12T13:34:00;12.20;40.90
74364;DHT22;62797;49.740;10.154;2023-02-12T13:36:26;12.30;40.80
74364;DHT22;62797;49.740;10.154;2023-02-12T13:39:06;12.50;40.60
74364;DHT22;62797;49.740;10.154;2023-02-12T13:41:34;12.90;41.00
74364;DHT22;62797;49.740;10.154;2023-02-12T13:44:19;13.10;39.00
74364;DHT22;62797;49.740;10.154;2023-02-12T13:47:03;13.10;37.40
74364;DHT22;62797;49.740;10.154;2023-02-12T13:52:26;12.40;37.90
74364;DHT22;62797;49.740;10.154;2023-02-12T13:57:41;12.00;38.90
74364;DHT22;62797;49.740;10.154;2023-02-12T14:00:55;11.60;40.10
74364;DHT22;62797;49.740;10.154;2023-02-12T14:03:12;11.40;40.40
74364;DHT22;62797;49.740;10.154;2023-02-12T14:05:38;11.20;41.70
74364;DHT22;62797;49.740;10.154;2023-02-12T14:08:05;11.10;42.40
74364;DHT22;62797;49.740;10.154;2023-02-12T14:10:40;10.90;42.80
74364;DHT22;62797;49.740;10.154;2023-02-12T14:13:13;10.90;43.40
74364;DHT22;62797;49.740;10.154;2023-02-12T14:15:43;10.80;43.50
74364;DHT22;62797;49.740;10.154;2023-02-12T14:18:34;10.60;43.80
74364;DHT22;62797;49.740;10.154;2023-02-12T14:23:39;10.40;44.70
74364;DHT22;62797;49.740;10.154;2023-02-12T14:26:14;10.30;45.60
74364;DHT22;62797;49.740;10.154;2023-02-12T14:28:51;10.20;45.70
74364;DHT22;62797;49.740;10.154;2023-02-12T14:33:44;10.00;47.00
74364;DHT22;62797;49.740;10.154;2023-02-12T14:38:58;10.00;47.50
74364;DHT22;62797;49.740;10.154;2023-02-12T14:49:22;9.90;47.90
74364;DHT22;62797;49.740;10.154;2023-02-12T14:54:50;9.80;47.40
74364;DHT22;62797;49.740;10.154;2023-02-12T15:02:47;9.70;48.70
74364;DHT22;62797;49.740;10.154;2023-02-12T15:28:03;8.60;50.60
74364;DHT22;62797;49.740;10.154;2023-02-12T15:30:33;8.50;52.40
74364;DHT22;62797;49.740;10.154;2023-02-12T15:35:29;8.50;53.20
74364;DHT22;62797;49.740;10.154;2023-02-12T15:37:57;8.60;53.70
74364;DHT22;62797;49.740;10.154;2023-02-12T15:40:25;8.70;53.30
74364;DHT22;62797;49.740;10.154;2023-02-12T15:43:02;8.70;53.40
74364;DHT22;62797;49.740;10.154;2023-02-12T15:45:30;8.80;53.30
74364;DHT22;62797;49.740;10.154;2023-02-12T15:50:25;8.80;53.00
74364;DHT22;62797;49.740;10.154;2023-02-12T15:52:51;8.80;52.90
74364;DHT22;62797;49.740;10.154;2023-02-12T15:55:20;8.70;52.90
74364;DHT22;62797;49.740;10.154;2023-02-12T15:57:56;8.70;53.30
74364;DHT22;62797;49.740;10.154;2023-02-12T16:00:42;8.70;53.40
74364;DHT22;62797;49.740;10.154;2023-02-12T16:05:48;8.60;53.40
74364;DHT22;62797;49.740;10.154;2023-02-12T16:08:16;8.60;54.10
74364;DHT22;62797;49.740;10.154;2023-02-12T16:10:45;8.50;54.10
74364;DHT22;62797;49.740;10.154;2023-02-12T16:13:28;8.60;54.20
74364;DHT22;62797;49.740;10.154;2023-02-12T16:18:40;8.50;54.80
74364;DHT22;62797;49.740;10.154;2023-02-12T16:21:12;8.50;54.70
74364;DHT22;62797;49.740;10.154;2023-02-12T16:23:41;8.50;54.70
74364;DHT22;62797;49.740;10.154;2023-02-12T16:26:07;8.50;54.60
74364;DHT22;62797;49.740;10.154;2023-02-12T16:28:32;8.50;54.80
74364;DHT22;62797;49.740;10.154;2023-02-12T16:31:08;8.40;54.70
74364;DHT22;62797;49.740;10.154;2023-02-12T16:33:41;8.40;55.10
74364;DHT22;62797;49.740;10.154;2023-02-12T16:46:33;8.20;55.70
74364;DHT22;62797;49.740;10.154;2023-02-12T16:49:16;8.10;56.30
74364;DHT22;62797;49.740;10.154;2023-02-12T16:51:43;8.10;56.40
74364;DHT22;62797;49.740;10.154;2023-02-12T16:54:35;8.00;56.10
74364;DHT22;62797;49.740;10.154;2023-02-12T16:57:01;8.00;56.10
74364;DHT22;62797;49.740;10.154;2023-02-12T16:59:27;7.90;56.80
74364;DHT22;62797;49.740;10.154;2023-02-12T17:02:08;7.90;56.60
74364;DHT22;62797;49.740;10.154;2023-02-12T17:04:34;7.90;56.70
74364;DHT22;62797;49.740;10.154;2023-02-12T17:07:00;7.80;56.80
74364;DHT22;62797;49.740;10.154;2023-02-12T17:09:25;7.80;56.70
74364;DHT22;62797;49.740;10.154;2023-02-12T17:11:53;7.80;56.80
74364;DHT22;62797;49.740;10.154;2023-02-12T17:14:19;7.80;56.90
74364;DHT22;62797;49.740;10.154;2023-02-12T17:16:45;7.80;57.00
74364;DHT22;62797;49.740;10.154;2023-02-12T17:19:10;7.70;57.00
74364;DHT22;62797;49.740;10.154;2023-02-12T17:21:38;7.70;58.10
74364;DHT22;62797;49.740;10.154;2023-02-12T17:24:08;7.70;57.40
74364;DHT22;62797;49.740;10.154;2023-02-12T17:26:37;7.70;57.10
74364;DHT22;62797;49.740;10.154;2023-02-12T17:29:03;7.70;57.40
74364;DHT22;62797;49.740;10.154;2023-02-12T17:31:33;7.60;57.30
74364;DHT22;62797;49.740;10.154;2023-02-12T17:33:59;7.60;58.30
74364;DHT22;62797;49.740;10.154;2023-02-12T17:36:24;7.60;57.50
74364;DHT22;62797;49.740;10.154;2023-02-12T17:38:50;7.60;57.50
74364;DHT22;62797;49.740;10.154;2023-02-12T17:41:16;7.50;57.50
74364;DHT22;62797;49.740;10.154;2023-02-12T17:43:42;7.50;57.50
74364;DHT22;62797;49.740;10.154;2023-02-12T17:46:13;7.50;57.50
74364;DHT22;62797;49.740;10.154;2023-02-12T17:48:41;7.50;57.60
74364;DHT22;62797;49.740;10.154;2023-02-12T17:51:08;7.40;57.70
74364;DHT22;62797;49.740;10.154;2023-02-12T17:53:34;7.40;57.70
74364;DHT22;62797;49.740;10.154;2023-02-12T17:55:59;7.40;58.20
74364;DHT22;62797;49.740;10.154;2023-02-12T18:01:54;7.30;57.50
74364;DHT22;62797;49.740;10.154;2023-02-12T18:04:20;7.30;58.40
74364;DHT22;62797;49.740;10.154;2023-02-12T18:06:46;7.20;58.50
74364;DHT22;62797;49.740;10.154;2023-02-12T18:09:11;7.20;58.50
74364;DHT22;62797;49.740;10.154;2023-02-12T18:11:37;7.20;58.60
74364;DHT22;62797;49.740;10.154;2023-02-12T18:14:04;7.10;59.00
74364;DHT22;62797;49.740;10.154;2023-02-12T18:16:32;7.10;59.30
74364;DHT22;62797;49.740;10.154;2023-02-12T18:19:00;7.10;59.60
74364;DHT22;62797;49.740;10.154;2023-02-12T18:21:26;7.10;59.50
74364;DHT22;62797;49.740;10.154;2023-02-12T18:23:52;7.10;59.40
74364;DHT22;62797;49.740;10.154;2023-02-12T18:26:19;7.10;59.50
74364;DHT22;62797;49.740;10.154;2023-02-12T18:28:45;7.00;59.30
74364;DHT22;62797;49.740;10.154;2023-02-12T18:31:11;7.00;59.50
74364;DHT22;62797;49.740;10.154;2023-02-12T18:33:37;6.90;59.50
74364;DHT22;62797;49.740;10.154;2023-02-12T18:36:10;6.90;59.80
74364;DHT22;62797;49.740;10.154;2023-02-12T18:38:37;6.80;60.10
74364;DHT22;62797;49.740;10.154;2023-02-12T18:41:08;6.80;59.70
74364;DHT22;62797;49.740;10.154;2023-02-12T18:43:34;6.80;60.10
74364;DHT22;62797;49.740;10.154;2023-02-12T18:46:05;6.80;59.80
74364;DHT22;62797;49.740;10.154;2023-02-12T18:48:31;6.80;59.80
74364;DHT22;62797;49.740;10.154;2023-02-12T18:51:00;6.70;60.30
74364;DHT22;62797;49.740;10.154;2023-02-12T18:53:25;6.80;60.20
74364;DHT22;62797;49.740;10.154;2023-02-12T18:55:51;6.70;59.90
74364;DHT22;62797;49.740;10.154;2023-02-12T18:58:16;6.70;59.90
74364;DHT22;62797;49.740;10.154;2023-02-12T19:00:42;6.60;59.80